world map with KMX marked

KMX - Airport

This information may not be accurate or current and is not valid for navigation or flight planning. No warranty of fitness for any purpose is made or implied.

flag of Saudi Arabia

Donate via PayPal

Additional information is available on the NEW Great Circle Mapper

Location
City:  Khamis Mushait, Saudi Arabia
Name:King Khaled AB
ICAO / IATA:OEKM / KMX

Details
Type:Airport (Aerodrome, Airfield)
Use:Military
Latitude:18°18'04"N (18.301111)
Longitude:42°48'03"E (42.800833)
Elevation:6778 ft (2066 m)
Runways:2
Longest:12467 × 148 ft (3800 × 45 m)

Time
Timezone:UTC+3 (DST+5)
Local Time:

Weather
METAR:OEKM  041400Z 21008KT CAVOK 21/07 Q1024 NOSIG
TAF:OEKM  (expired)

Related Locations
Nearby:
Farthest:PUK: 12437 mi / 20015 km
Pukarua, PF

Find:

   beyond  
but within

Other Information
Maps:
Sources:

  


 


Great Circle Mapper   Great Circle Mapper
Great Circle Mapper FAQ   Great Circle Mapper FAQ
  Karl's Home Page
KLSē   KLSē Home
   GC on Facebook
Airlines of the World   Airlines of the World
Donate via PayPal


Copyright © 2004-2019, Karl L. Swartz. All rights reserved.
All trademarks mentioned herein belong to their respective owners.

Please see credits for attribution and copyright information.

Karl Swartz <karl@kls2.com>
  Powered by FreeBSD
Valid HTML 4.01!
Labeled with ICRA
hCard Microformat
Geo Microformat